x

Ilm2 - 5 Miles Se Of Wrightsville Beach, Nc (41038) Weather Station

2:08 - Wed 1st Jun 2016 All times are EDT. -4 hours from GMT.

  • Wind
    11mph, 13mph gusts
  • Sea Temp 76°f
  • Air Temp 76°f
  • Sea Pressure 1013mb
  • Ilm2 - 5 Miles Se Of Wrightsville Beach, Nc
  • Ilm2 - 5 Miles Se Of Wrightsville Beach, Nc

More Historic Weather Station data

Upgrade to MSW Pro to gain access to the past 30 days of data for over 8000 Wavebouys and Weather Stations around the globe.

Join Pro

Comparision Forecast

View Surf forecast
   
mer. 06/01 2:08 11 13 mph 1013mb 76f 76f
1:08 13 18 mph 1013.3mb 76f 75f
12:08 7 13 mph 1013.9mb 76f 74f
mar. 05/31 11:08 11 16 mph 1013.9mb 76f 76f
10:08 16 22 mph 1013.2mb 76f 76f
9:08 16 20 mph 1012.4mb 76f 76f
8:08 11 16 mph 1012.3mb 76f 76f
7:08 16 20 mph 1012.3mb 76f 76f
6:08 13 20 mph 1012mb 76f 76f
5:08 16 20 mph 1011.8mb 76f 76f
4:08 18 22 mph 1011.8mb 76f 75f
3:08 18 25 mph 1012.1mb 76f 76f
2:08 16 20 mph 1012.7mb 76f 77f
1:08 16 20 mph 1012.9mb 76f 76f
12:08 16 22 mph 1013.4mb 76f 77f
11:08 16 22 mph 1013.4mb 76f 76f
10:08 16 22 mph 1013.4mb 76f 75f
9:08 16 20 mph 1013.1mb 76f 76f
8:08 4 9 mph 1013.2mb 76f 75f
7:08 7 11 mph 1012.7mb 76f 76f
6:08 7 11 mph 1012.3mb 76f 76f
5:08 7 11 mph 1011.8mb 76f 76f
4:08 7 11 mph 1011.7mb 76f 76f
3:08 7 9 mph 1011.8mb 76f 75f
2:08 4 9 mph 1011.8mb 76f 75f
1:08 11 16 mph 1012.4mb 76f 75f
12:08 11 16 mph 1013.6mb 77f 75f
lun. 05/30 11:08 9 13 mph 1013.6mb 77f 74f
10:08 7 11 mph 1014.2mb 77f 77f
9:08 7 11 mph 1013.5mb 77f 77f
8:08 9 13 mph 1013.3mb 77f 77f
7:08 11 16 mph 1012.8mb 78f 76f
6:08 9 13 mph 1012.8mb 77f 78f
5:08 7 11 mph 1012.9mb 77f 77f
4:08 7 11 mph 1013.2mb 77f 78f
3:08 9 13 mph 1013.6mb 77f 77f
2:08 7 9 mph 1014.2mb 77f 78f
1:08 7 11 mph 1014.6mb 77f 78f
12:08 7 11 mph 1015.1mb 77f 78f
10:08 9 11 mph 1015.4mb 76f 77f
9:08 4 9 mph 1015.4mb 76f 77f
8:08 4 9 mph 1015.3mb 75f 76f
7:08 7 11 mph 1015mb 75f 76f
6:08 9 13 mph 1014.7mb 75f 75f
5:08 4 9 mph 1014.6mb 75f 76f
4:08 4 9 mph 1014.8mb 76f 76f
3:08 7 11 mph 1014.8mb 76f 76f
2:08 7 11 mph 1015.3mb 76f 76f
1:08 4 9 mph 1015.9mb 76f 76f
12:08 9 13 mph 1016.2mb 76f 76f
dim. 05/29 11:08 9
mph
1016.3mb 76f 75f
10:08 7 11 mph 1016.4mb 76f 76f
9:08 9 16 mph 1016mb 76f 77f
8:08 11 13 mph 1015.9mb 76f 77f
7:08 7 9 mph 1016.1mb 76f 76f
6:08 9 13 mph 1015.8mb 75f 76f
5:08 9 16 mph 1016mb 75f 77f
4:08 13 20 mph 1016.1mb 75f 77f
3:08 16 22 mph 1016.5mb 75f 75f
2:08 13 20 mph 1017.1mb 75f 78f
1:08 11 16 mph 1017.6mb 75f 78f
12:08 11 16 mph 1017.9mb 75f 77f
11:08 9 13 mph 1018mb 75f 77f
10:08 11 16 mph 1018mb 75f 77f
9:08 9 16 mph 1017.7mb 74f 77f
8:08 9 13 mph 1017.3mb 74f 76f
7:08 9 13 mph 1017.3mb 74f 75f
6:08 11 16 mph 1017.2mb 74f 75f
5:08 11 16 mph 1017mb 74f 75f
4:08 18 27 mph 1017mb 74f 74f
3:08 16 22 mph 1017.5mb 74f 75f
2:08 16 20 mph 1017.5mb 74f 75f
1:08 13 18 mph 1018.3mb 74f 74f
12:08 11 16 mph 1018.9mb 74f 74f
sam. 05/28 11:08 11 16 mph 1019.3mb 74f 75f
10:08 13 18 mph 1019.5mb 74f 75f
9:08 13 20 mph 1019.3mb 74f 75f
8:08 18 22 mph 1019.2mb 75f 75f
7:08 18 22 mph 1019.3mb 75f 76f
6:08 16 22 mph 1019.5mb 75f 76f
5:08 16 22 mph 1019.8mb 75f 76f
4:08 13 20 mph 1020.2mb 75f 76f
3:08 16 20 mph 1020.4mb 75f 76f
2:08 16 20 mph 1021mb 75f 76f
1:08 13 18 mph 1021.5mb 75f 76f
12:08 13 18 mph 1022mb 75f 76f
11:08 13 18 mph 1021.8mb 75f 75f
10:08 13 18 mph 1021.5mb 74f 75f
9:08 11 16 mph 1021.3mb 74f 75f
8:08 11 16 mph 1020.9mb 74f 75f